createdAt,value
2019-05-01T00:00:28.410Z,28.67
2019-05-01T00:03:35.040Z,28.80
2019-05-01T00:06:04.922Z,30.23
2019-05-01T00:08:34.389Z,29.40
2019-05-01T00:11:03.661Z,26.33
2019-05-01T00:13:32.972Z,27.33
2019-05-01T00:16:02.225Z,25.53
2019-05-01T00:18:31.489Z,30.77
2019-05-01T00:21:00.951Z,29.37
2019-05-01T00:23:30.205Z,30.53
2019-05-01T00:25:59.485Z,26.47
2019-05-01T00:28:28.741Z,28.40
2019-05-01T00:30:57.989Z,27.57
2019-05-01T00:33:27.323Z,27.70
2019-05-01T00:35:56.717Z,31.00
2019-05-01T00:38:26.003Z,26.07
2019-05-01T00:40:55.253Z,27.17
2019-05-01T00:43:24.505Z,25.80
2019-05-01T00:45:53.794Z,34.33
2019-05-01T00:48:23.113Z,32.87
2019-05-01T00:50:52.372Z,27.10
2019-05-01T00:53:21.635Z,29.67
2019-05-01T00:56:08.817Z,28.43
2019-05-01T00:58:54.961Z,32.70
2019-05-01T01:01:43.173Z,32.83
2019-05-01T01:04:14.898Z,28.00
2019-05-01T01:06:44.257Z,26.97
2019-05-01T01:09:13.720Z,30.40
2019-05-01T01:11:43.010Z,29.67
2019-05-01T01:14:12.382Z,30.53
2019-05-01T01:16:41.638Z,30.87
2019-05-01T01:19:10.896Z,29.43
2019-05-01T01:21:40.157Z,29.33
2019-05-01T01:24:09.451Z,32.20
2019-05-01T01:26:38.734Z,31.23
2019-05-01T01:29:08.013Z,29.97
2019-05-01T01:31:37.313Z,30.50
2019-05-01T01:34:06.581Z,33.43
2019-05-01T01:36:35.833Z,31.27
2019-05-01T01:39:06.677Z,30.27
2019-05-01T01:41:36.541Z,33.07
2019-05-01T01:44:22.333Z,28.87
2019-05-01T01:46:52.309Z,31.50
2019-05-01T01:49:21.726Z,31.23
2019-05-01T01:51:51.685Z,32.20
2019-05-01T01:54:21.164Z,31.43
2019-05-01T01:56:50.838Z,31.67
2019-05-01T01:59:21.301Z,34.77
2019-05-01T02:02:08.955Z,33.30
2019-05-01T02:05:03.058Z,32.00
2019-05-01T02:07:32.774Z,32.53
2019-05-01T02:10:02.970Z,35.20
2019-05-01T02:12:32.405Z,35.60
2019-05-01T02:15:01.705Z,33.17
2019-05-01T02:17:30.963Z,34.60
2019-05-01T02:20:00.215Z,39.60
2019-05-01T02:22:29.478Z,37.10
2019-05-01T02:24:58.817Z,37.90
2019-05-01T02:27:43.975Z,37.77
2019-05-01T02:30:15.674Z,40.03
2019-05-01T02:32:47.663Z,38.40
2019-05-01T02:35:17.134Z,41.23
2019-05-01T02:37:48.366Z,42.57
2019-05-01T02:40:55.519Z,44.70
2019-05-01T02:43:28.489Z,42.57
2019-05-01T02:46:00.341Z,42.77
2019-05-01T02:48:32.753Z,40.00
2019-05-01T02:51:04.537Z,40.10
2019-05-01T02:53:37.387Z,41.03
2019-05-01T02:56:33.623Z,36.40
2019-05-01T02:59:05.710Z,39.57
2019-05-01T03:01:46.604Z,41.50
2019-05-01T03:04:09.149Z,36.70
2019-05-01T03:06:39.716Z,41.70
2019-05-01T03:09:08.986Z,38.47
2019-05-01T03:11:41.036Z,38.57
2019-05-01T03:14:17.427Z,38.07
2019-05-01T03:16:48.549Z,36.23
2019-05-01T03:19:37.078Z,35.77
2019-05-01T03:22:12.313Z,36.40
2019-05-01T03:24:41.870Z,35.97
2019-05-01T03:27:11.519Z,34.77
2019-05-01T03:29:41.284Z,34.23
2019-05-01T03:32:18.276Z,35.70
2019-05-01T03:34:42.033Z,38.00
2019-05-01T03:37:11.283Z,31.50
2019-05-01T03:39:41.262Z,34.70
2019-05-01T03:42:10.724Z,33.80
2019-05-01T03:44:39.998Z,33.90
2019-05-01T03:47:09.477Z,36.07
2019-05-01T03:49:38.865Z,33.93
2019-05-01T03:52:08.166Z,33.43
2019-05-01T03:54:37.469Z,38.57
2019-05-01T03:57:06.746Z,34.63
2019-05-01T03:59:36.042Z,33.40
2019-05-01T04:02:32.066Z,33.00
2019-05-01T04:04:48.069Z,30.90
2019-05-01T04:07:17.338Z,33.70
2019-05-01T04:09:46.607Z,33.10
2019-05-01T04:12:15.887Z,33.10
2019-05-01T04:14:45.550Z,34.73
2019-05-01T04:17:21.232Z,30.27
2019-05-01T04:19:50.862Z,29.50
2019-05-01T04:22:20.533Z,31.47
2019-05-01T04:24:50.214Z,30.20
2019-05-01T04:27:30.768Z,27.37
2019-05-01T04:30:28.563Z,30.33
2019-05-01T04:33:00.727Z,30.17
2019-05-01T04:35:47.993Z,30.17
2019-05-01T04:38:17.989Z,34.57
2019-05-01T04:40:47.385Z,28.43
2019-05-01T04:43:16.745Z,29.67
2019-05-01T04:45:46.004Z,28.53
2019-05-01T04:48:15.483Z,28.07
2019-05-01T04:50:44.957Z,29.00
2019-05-01T04:53:14.745Z,23.37
2019-05-01T04:55:44.191Z,26.77
2019-05-01T04:58:13.865Z,24.20
2019-05-01T05:00:43.434Z,28.73
2019-05-01T05:03:16.996Z,26.83
2019-05-01T05:05:46.393Z,28.87
2019-05-01T05:08:16.253Z,28.00
2019-05-01T05:10:46.795Z,24.30
2019-05-01T05:13:35.186Z,26.27
2019-05-01T05:16:22.646Z,33.27
2019-05-01T05:18:51.945Z,30.27
2019-05-01T05:21:21.454Z,30.23
2019-05-01T05:23:51.206Z,32.23
2019-05-01T05:26:20.778Z,27.97
2019-05-01T05:28:51.145Z,27.20
2019-05-01T05:31:22.505Z,28.50
2019-05-01T05:33:53.729Z,27.30
2019-05-01T05:36:25.593Z,27.27
2019-05-01T05:39:15.038Z,28.13
2019-05-01T05:41:45.409Z,26.57
2019-05-01T05:44:14.761Z,29.27
2019-05-01T05:46:44.258Z,26.47
2019-05-01T05:49:13.850Z,24.53
2019-05-01T05:52:02.405Z,25.80
2019-05-01T05:54:56.561Z,25.67
2019-05-01T05:57:39.097Z,24.30
2019-05-01T06:00:30.822Z,24.00
2019-05-01T06:03:31.187Z,23.50
2019-05-01T06:06:07.194Z,23.70
2019-05-01T06:08:39.690Z,20.03
2019-05-01T06:11:22.346Z,21.60
2019-05-01T06:14:16.090Z,19.03
2019-05-01T06:16:54.993Z,21.17
2019-05-01T06:19:45.836Z,20.60
2019-05-01T06:22:31.065Z,21.13
2019-05-01T06:25:21.086Z,20.70
2019-05-01T06:27:40.063Z,20.87
2019-05-01T06:30:11.187Z,20.23
2019-05-01T06:32:41.857Z,19.23
2019-05-01T06:35:11.122Z,22.93
2019-05-01T06:38:05.126Z,15.27
2019-05-01T06:40:43.307Z,19.93
2019-05-01T06:43:43.466Z,17.43
2019-05-01T06:46:29.141Z,18.67
2019-05-01T06:49:07.093Z,16.17
2019-05-01T06:51:42.269Z,17.87
2019-05-01T06:54:16.120Z,17.33
2019-05-01T06:56:45.014Z,19.87
2019-05-01T06:59:14.993Z,19.77
2019-05-01T07:01:45.245Z,18.73
2019-05-01T07:04:14.601Z,18.47
2019-05-01T07:06:44.365Z,15.73
2019-05-01T07:09:27.077Z,17.07
2019-05-01T07:11:47.703Z,21.27
2019-05-01T07:14:17.597Z,15.43
2019-05-01T07:16:47.240Z,14.47
2019-05-01T07:19:17.926Z,14.77
2019-05-01T07:21:47.181Z,15.53
2019-05-01T07:24:16.837Z,14.43
2019-05-01T07:26:48.029Z,14.47
2019-05-01T07:29:19.163Z,11.87
2019-05-01T07:31:48.613Z,14.03
2019-05-01T07:34:21.631Z,14.70
2019-05-01T07:36:50.139Z,13.90
2019-05-01T07:39:20.285Z,13.33
2019-05-01T07:41:49.725Z,18.43
2019-05-01T07:44:29.939Z,13.40
2019-05-01T07:47:04.186Z,12.77
2019-05-01T07:49:58.294Z,14.00
2019-05-01T07:52:29.175Z,10.07
2019-05-01T07:54:59.597Z,14.20
2019-05-01T07:57:29.510Z,14.37
2019-05-01T08:00:03.546Z,13.47
2019-05-01T08:02:31.180Z,11.03
2019-05-01T08:05:04.927Z,9.97
2019-05-01T08:07:32.319Z,14.43
2019-05-01T08:10:03.133Z,9.80
2019-05-01T08:12:32.403Z,12.80
2019-05-01T08:15:01.725Z,11.80
2019-05-01T08:17:33.073Z,10.00
2019-05-01T08:20:15.343Z,11.33
2019-05-01T08:22:45.681Z,7.77
2019-05-01T08:25:14.995Z,8.53
2019-05-01T08:27:50.912Z,10.30
2019-05-01T08:30:34.724Z,13.03
2019-05-01T08:33:14.617Z,8.30
2019-05-01T08:35:42.139Z,10.68
2019-05-01T08:38:11.433Z,7.42
2019-05-01T08:40:40.686Z,6.72
2019-05-01T08:43:13.667Z,7.42
2019-05-01T08:46:02.659Z,8.83
2019-05-01T08:48:40.103Z,6.90
2019-05-01T08:51:09.574Z,8.50
2019-05-01T08:53:38.841Z,8.13
2019-05-01T08:56:09.786Z,9.48
2019-05-01T08:58:39.345Z,8.03
2019-05-01T09:01:10.867Z,9.68
2019-05-01T09:03:39.599Z,7.92
2019-05-01T09:06:08.866Z,6.72
2019-05-01T09:08:38.133Z,8.63
2019-05-01T09:11:07.426Z,9.20
2019-05-01T09:13:36.768Z,8.03
2019-05-01T09:16:06.097Z,5.53
2019-05-01T09:18:35.386Z,8.70
2019-05-01T09:21:04.653Z,10.53
2019-05-01T09:23:34.561Z,5.95
2019-05-01T09:26:15.991Z,6.22
2019-05-01T09:28:50.333Z,8.40
2019-05-01T09:31:21.526Z,6.58
2019-05-01T09:33:50.773Z,8.25
2019-05-01T09:36:20.050Z,7.22
2019-05-01T09:38:50.100Z,7.95
2019-05-01T09:41:19.609Z,10.00
2019-05-01T09:43:48.866Z,6.35
2019-05-01T09:46:18.174Z,7.83
2019-05-01T09:48:47.853Z,7.15
2019-05-01T09:51:26.083Z,6.03
2019-05-01T09:54:09.753Z,6.53
2019-05-01T09:56:39.106Z,15.32
2019-05-01T09:59:12.577Z,8.95
2019-05-01T10:01:39.466Z,6.97
2019-05-01T10:04:08.738Z,7.30
2019-05-01T10:06:38.001Z,5.42
2019-05-01T10:09:12.057Z,7.28
2019-05-01T10:11:40.594Z,10.32
2019-05-01T10:14:10.358Z,5.72
2019-05-01T10:16:39.650Z,5.45
2019-05-01T10:19:08.902Z,6.20
2019-05-01T10:21:38.149Z,5.33
2019-05-01T10:24:07.418Z,5.25
2019-05-01T10:26:38.629Z,5.22
2019-05-01T10:29:36.293Z,5.90
2019-05-01T10:32:23.184Z,7.92
2019-05-01T10:34:57.013Z,7.50
2019-05-01T10:37:28.509Z,6.15
2019-05-01T10:39:57.463Z,6.80
2019-05-01T10:42:26.748Z,6.05
2019-05-01T10:44:56.014Z,5.10
2019-05-01T10:47:25.272Z,5.12
2019-05-01T10:49:54.618Z,5.17
2019-05-01T10:52:23.869Z,5.78
2019-05-01T10:54:53.232Z,6.22
2019-05-01T10:57:22.569Z,5.08
2019-05-01T10:59:51.840Z,8.43
2019-05-01T11:02:21.171Z,6.47
2019-05-01T11:04:50.518Z,9.93
2019-05-01T11:07:20.035Z,7.57
2019-05-01T11:09:49.291Z,3.93
2019-05-01T11:12:18.553Z,6.97
2019-05-01T11:14:47.839Z,4.87
2019-05-01T11:17:17.154Z,7.47
2019-05-01T11:19:46.419Z,7.90
2019-05-01T11:22:15.670Z,6.57
2019-05-01T11:24:44.937Z,4.83
2019-05-01T11:27:14.194Z,6.67
2019-05-01T11:29:43.553Z,6.60
2019-05-01T11:32:38.294Z,5.43
2019-05-01T11:35:38.834Z,6.87
2019-05-01T11:38:19.625Z,6.37
2019-05-01T11:41:01.366Z,7.17
2019-05-01T11:43:30.646Z,4.97
2019-05-01T11:45:59.909Z,5.47
2019-05-01T11:48:30.286Z,10.97
2019-05-01T11:51:00.239Z,5.77
2019-05-01T11:53:29.609Z,6.23
2019-05-01T11:55:58.878Z,6.00
2019-05-01T11:58:28.189Z,6.57
2019-05-01T12:00:59.038Z,8.37
2019-05-01T12:03:28.413Z,10.40
2019-05-01T12:05:57.694Z,8.63
2019-05-01T12:08:26.945Z,9.57
2019-05-01T12:10:56.214Z,5.90
2019-05-01T12:13:25.474Z,12.10
2019-05-01T12:16:01.882Z,9.33
2019-05-01T12:18:31.182Z,6.47
2019-05-01T12:21:00.437Z,7.83
2019-05-01T12:23:29.689Z,6.70
2019-05-01T12:25:58.955Z,12.03
2019-05-01T12:28:28.215Z,5.60
2019-05-01T12:30:57.673Z,9.03
2019-05-01T12:33:26.935Z,7.03
2019-05-01T12:35:57.839Z,8.03
2019-05-01T12:38:27.146Z,7.03
2019-05-01T12:41:14.317Z,7.30
2019-05-01T12:43:43.685Z,7.77
2019-05-01T12:46:31.919Z,7.37
2019-05-01T12:49:01.240Z,7.47
2019-05-01T12:51:30.505Z,12.73
2019-05-01T12:54:14.385Z,8.77
2019-05-01T12:56:50.789Z,9.60
2019-05-01T12:59:20.088Z,8.47
2019-05-01T13:01:49.338Z,7.63
2019-05-01T13:04:18.678Z,7.87
2019-05-01T13:06:49.843Z,7.63
2019-05-01T13:09:19.142Z,10.20
2019-05-01T13:11:48.702Z,8.33
2019-05-01T13:14:17.958Z,7.90
2019-05-01T13:16:47.234Z,7.27
2019-05-01T13:19:16.508Z,8.63
2019-05-01T13:21:45.762Z,6.07
2019-05-01T13:24:15.027Z,11.03
2019-05-01T13:27:06.510Z,9.77
2019-05-01T13:29:40.604Z,7.10
2019-05-01T13:32:35.173Z,10.77
2019-05-01T13:35:04.785Z,11.57
2019-05-01T13:37:34.044Z,7.90
2019-05-01T13:40:03.338Z,7.83
2019-05-01T13:42:32.665Z,7.37
2019-05-01T13:45:01.918Z,9.13
2019-05-01T13:47:31.190Z,9.23
2019-05-01T13:50:00.461Z,8.83
2019-05-01T13:52:29.838Z,8.53
2019-05-01T13:54:59.134Z,10.80
2019-05-01T13:57:28.484Z,9.07
2019-05-01T13:59:57.753Z,7.80
2019-05-01T14:02:27.001Z,7.23
2019-05-01T14:04:56.269Z,6.53
2019-05-01T14:07:25.529Z,7.00
2019-05-01T14:09:54.806Z,5.73
2019-05-01T14:12:24.127Z,7.93
2019-05-01T14:14:53.411Z,8.50
2019-05-01T14:17:22.654Z,8.47
2019-05-01T14:20:00.150Z,10.53
2019-05-01T14:22:52.192Z,9.97
2019-05-01T14:25:21.489Z,6.83
2019-05-01T14:27:50.745Z,6.20
2019-05-01T14:30:19.990Z,6.70
2019-05-01T14:32:51.613Z,6.53
2019-05-01T14:35:20.459Z,7.93
2019-05-01T14:37:49.786Z,9.50
2019-05-01T14:40:19.194Z,8.30
2019-05-01T14:42:48.433Z,9.00
2019-05-01T14:45:18.013Z,6.97
2019-05-01T14:47:47.275Z,7.83
2019-05-01T14:50:16.626Z,6.10
2019-05-01T14:52:45.930Z,8.13
2019-05-01T14:55:15.498Z,7.93
2019-05-01T14:57:44.753Z,12.20
2019-05-01T15:00:15.325Z,10.77
2019-05-01T15:02:44.578Z,7.73
2019-05-01T15:05:13.861Z,14.53
2019-05-01T15:07:44.105Z,13.30
2019-05-01T15:10:13.907Z,9.10
2019-05-01T15:12:44.813Z,8.20
2019-05-01T15:15:45.234Z,8.67
2019-05-01T15:18:42.490Z,6.60
2019-05-01T15:21:11.750Z,9.17
2019-05-01T15:23:53.060Z,8.67
2019-05-01T15:26:12.022Z,8.63
2019-05-01T15:28:41.314Z,6.93
2019-05-01T15:31:10.578Z,7.27
2019-05-01T15:33:39.837Z,9.23
2019-05-01T15:36:09.146Z,7.30
2019-05-01T15:38:38.487Z,7.00
2019-05-01T15:41:15.675Z,7.33
2019-05-01T15:44:06.646Z,9.53
2019-05-01T15:46:37.522Z,6.40
2019-05-01T15:49:06.827Z,7.87
2019-05-01T15:51:36.086Z,8.53
2019-05-01T15:54:05.362Z,10.80
2019-05-01T15:56:34.625Z,7.93
2019-05-01T15:59:04.001Z,7.47
2019-05-01T16:01:33.398Z,8.30
2019-05-01T16:04:02.652Z,8.30
2019-05-01T16:06:31.927Z,7.97
2019-05-01T16:09:01.196Z,7.93
2019-05-01T16:12:01.454Z,7.60
2019-05-01T16:14:31.021Z,10.93
2019-05-01T16:17:00.282Z,8.70
2019-05-01T16:19:29.584Z,8.93
2019-05-01T16:21:58.839Z,8.50
2019-05-01T16:24:28.098Z,7.20
2019-05-01T16:26:57.377Z,6.87
2019-05-01T16:29:26.670Z,9.63
2019-05-01T16:31:55.927Z,6.57
2019-05-01T16:34:25.279Z,7.07
2019-05-01T16:36:54.537Z,10.33
2019-05-01T16:39:52.043Z,7.20
2019-05-01T16:42:25.502Z,7.53
2019-05-01T16:44:54.809Z,10.83
2019-05-01T16:47:24.293Z,9.17
2019-05-01T16:49:53.597Z,8.93
2019-05-01T16:52:25.115Z,7.80
2019-05-01T16:54:59.385Z,8.37
2019-05-01T16:57:25.592Z,10.13
2019-05-01T16:59:55.253Z,10.53
2019-05-01T17:02:46.482Z,11.03
2019-05-01T17:05:46.592Z,9.20
2019-05-01T17:08:36.863Z,8.17
2019-05-01T17:11:08.169Z,10.20
2019-05-01T17:13:37.421Z,9.30
2019-05-01T17:16:06.703Z,9.90
2019-05-01T17:18:35.961Z,9.13
2019-05-01T17:21:05.374Z,11.73
2019-05-01T17:23:34.641Z,11.73
2019-05-01T17:26:03.942Z,10.77
2019-05-01T17:28:33.208Z,11.73
2019-05-01T17:31:02.537Z,11.90
2019-05-01T17:33:31.802Z,12.63
2019-05-01T17:36:01.071Z,13.57
2019-05-01T17:38:30.921Z,16.27
2019-05-01T17:41:00.195Z,11.93
2019-05-01T17:43:29.450Z,14.47
2019-05-01T17:45:58.744Z,12.90
2019-05-01T17:48:28.881Z,14.03
2019-05-01T17:51:00.047Z,14.93
2019-05-01T17:53:29.969Z,15.23
2019-05-01T17:55:59.274Z,16.93
2019-05-01T17:58:28.526Z,18.17
2019-05-01T18:01:27.878Z,15.90
2019-05-01T18:04:14.821Z,18.43
2019-05-01T18:06:47.784Z,18.70
2019-05-01T18:09:17.917Z,20.23
2019-05-01T18:11:52.047Z,23.00
2019-05-01T18:14:18.334Z,20.77
2019-05-01T18:16:47.802Z,20.60
2019-05-01T18:19:17.109Z,22.30
2019-05-01T18:21:51.697Z,21.77
2019-05-01T18:24:41.831Z,19.43
2019-05-01T18:27:39.205Z,20.60
2019-05-01T18:30:11.322Z,22.43
2019-05-01T18:32:47.417Z,24.47
2019-05-01T18:35:16.130Z,31.20
2019-05-01T18:37:53.125Z,27.73
2019-05-01T18:40:29.536Z,28.33
2019-05-01T18:42:58.917Z,30.67
2019-05-01T18:45:55.209Z,28.80
2019-05-01T18:48:25.178Z,30.67
2019-05-01T18:50:56.319Z,31.33
2019-05-01T18:53:25.782Z,33.80
2019-05-01T18:55:55.145Z,29.70
2019-05-01T18:58:24.462Z,28.53
2019-05-01T19:01:03.974Z,30.30
2019-05-01T19:03:37.169Z,34.10
2019-05-01T19:06:04.714Z,36.67
2019-05-01T19:08:34.082Z,30.10
2019-05-01T19:11:12.306Z,35.40
2019-05-01T19:13:34.475Z,31.03
2019-05-01T19:16:08.374Z,28.50
2019-05-01T19:18:35.052Z,31.67
2019-05-01T19:21:04.494Z,28.67
2019-05-01T19:23:33.847Z,23.90
2019-05-01T19:26:06.495Z,21.33
2019-05-01T19:28:34.236Z,21.63
2019-05-01T19:31:03.628Z,17.57
2019-05-01T19:33:32.956Z,15.43
2019-05-01T19:36:07.546Z,15.93
2019-05-01T19:38:34.809Z,14.27
2019-05-01T19:41:08.920Z,13.07
2019-05-01T19:43:35.741Z,12.97
2019-05-01T19:46:06.843Z,14.77
2019-05-01T19:48:36.213Z,18.07
2019-05-01T19:51:05.879Z,17.50
2019-05-01T19:53:35.255Z,16.07
2019-05-01T19:56:04.687Z,10.30
2019-05-01T19:58:33.941Z,10.40
2019-05-01T20:01:05.634Z,9.83
2019-05-01T20:03:37.140Z,8.13
2019-05-01T20:06:08.225Z,9.37
2019-05-01T20:08:37.449Z,6.70
2019-05-01T20:11:09.380Z,9.03
2019-05-01T20:13:37.866Z,9.90
2019-05-01T20:16:08.533Z,10.57
2019-05-01T20:18:37.883Z,10.33
2019-05-01T20:21:07.485Z,14.00
2019-05-01T20:23:36.753Z,17.47
2019-05-01T20:26:06.077Z,19.80
2019-05-01T20:28:37.229Z,20.20
2019-05-01T20:31:06.358Z,16.43
2019-05-01T20:33:38.626Z,17.17
2019-05-01T20:36:06.846Z,14.03
2019-05-01T20:38:36.112Z,13.60
2019-05-01T20:41:05.386Z,12.87
2019-05-01T20:43:38.240Z,11.87
2019-05-01T20:46:07.096Z,14.27
2019-05-01T20:48:36.621Z,14.43
2019-05-01T20:51:05.988Z,14.50
2019-05-01T20:53:35.265Z,12.40
2019-05-01T20:56:22.058Z,10.70
2019-05-01T20:58:51.421Z,13.00
2019-05-01T21:01:24.208Z,12.87
2019-05-01T21:04:00.291Z,13.93
2019-05-01T21:06:31.087Z,15.90
2019-05-01T21:09:13.527Z,14.53
2019-05-01T21:11:47.511Z,12.10
2019-05-01T21:14:22.318Z,15.03
2019-05-01T21:16:46.013Z,13.93
2019-05-01T21:19:15.276Z,14.77
2019-05-01T21:21:44.786Z,15.40
2019-05-01T21:24:14.203Z,14.90
2019-05-01T21:26:43.495Z,14.83
2019-05-01T21:29:14.028Z,16.93
2019-05-01T21:31:44.094Z,15.70
2019-05-01T21:34:14.474Z,15.73
2019-05-01T21:36:47.550Z,15.57
2019-05-01T21:39:17.474Z,19.60
2019-05-01T21:41:46.138Z,16.90
2019-05-01T21:44:15.407Z,19.83
2019-05-01T21:46:44.657Z,19.00
2019-05-01T21:49:13.926Z,18.07
2019-05-01T21:51:46.101Z,20.70
2019-05-01T21:54:16.142Z,21.43
2019-05-01T21:56:45.206Z,21.93
2019-05-01T21:59:15.107Z,23.93
2019-05-01T22:01:44.577Z,22.13
2019-05-01T22:04:14.025Z,22.20
2019-05-01T22:06:46.761Z,21.20
2019-05-01T22:09:18.047Z,22.40
2019-05-01T22:11:47.461Z,21.67
2019-05-01T22:14:25.925Z,20.90
2019-05-01T22:16:56.852Z,20.20
2019-05-01T22:19:26.549Z,19.47
2019-05-01T22:22:15.261Z,20.53
2019-05-01T22:25:03.534Z,20.90
2019-05-01T22:27:42.666Z,22.13
2019-05-01T22:30:20.928Z,19.23
2019-05-01T22:32:52.135Z,19.63
2019-05-01T22:35:33.529Z,20.93
2019-05-01T22:38:03.029Z,19.97
2019-05-01T22:41:04.748Z,19.63
2019-05-01T22:43:23.544Z,20.63
2019-05-01T22:45:56.184Z,22.77
2019-05-01T22:48:23.817Z,23.30
2019-05-01T22:50:56.174Z,25.93
2019-05-01T22:53:25.431Z,27.80
2019-05-01T22:55:57.310Z,28.00
2019-05-01T22:58:25.785Z,31.40
2019-05-01T23:00:56.858Z,35.10
2019-05-01T23:04:00.194Z,35.30
2019-05-01T23:06:29.451Z,31.27
2019-05-01T23:08:58.802Z,34.37
2019-05-01T23:11:30.577Z,34.60
2019-05-01T23:13:59.842Z,33.97
2019-05-01T23:16:33.090Z,38.80
2019-05-01T23:19:02.366Z,39.37
2019-05-01T23:21:31.769Z,40.33
2019-05-01T23:24:01.970Z,38.63
2019-05-01T23:26:31.625Z,35.70
2019-05-01T23:29:00.890Z,40.50
2019-05-01T23:31:30.558Z,42.33
2019-05-01T23:33:59.862Z,38.70
2019-05-01T23:36:29.183Z,38.63
2019-05-01T23:38:58.450Z,41.70
2019-05-01T23:41:44.609Z,41.23
2019-05-01T23:44:03.625Z,42.33
2019-05-01T23:46:29.694Z,38.50
2019-05-01T23:48:58.950Z,42.43
2019-05-01T23:51:29.771Z,40.77
2019-05-01T23:53:59.277Z,43.53
2019-05-01T23:56:31.036Z,39.03
2019-05-01T23:58:59.756Z,43.93
